sensor_id;sensor_type;location;lat;lon;timestamp;temperature;humidity
51815;DHT22;37874;53.158;6.766;2023-02-26T00:00:11;15.80;52.40
51815;DHT22;37874;53.158;6.766;2023-02-26T00:02:40;15.80;52.40
51815;DHT22;37874;53.158;6.766;2023-02-26T00:05:06;15.80;52.60
51815;DHT22;37874;53.158;6.766;2023-02-26T00:07:32;15.80;52.70
51815;DHT22;37874;53.158;6.766;2023-02-26T00:09:58;15.80;53.00
51815;DHT22;37874;53.158;6.766;2023-02-26T00:12:23;15.80;52.90
51815;DHT22;37874;53.158;6.766;2023-02-26T00:14:49;15.80;53.00
51815;DHT22;37874;53.158;6.766;2023-02-26T00:17:36;15.80;52.90
51815;DHT22;37874;53.158;6.766;2023-02-26T00:20:04;15.80;52.90
51815;DHT22;37874;53.158;6.766;2023-02-26T00:22:30;15.80;53.10
51815;DHT22;37874;53.158;6.766;2023-02-26T00:24:56;15.80;53.00
51815;DHT22;37874;53.158;6.766;2023-02-26T00:27:22;15.80;52.90
51815;DHT22;37874;53.158;6.766;2023-02-26T00:29:47;15.70;52.90
51815;DHT22;37874;53.158;6.766;2023-02-26T00:32:14;15.80;52.90
51815;DHT22;37874;53.158;6.766;2023-02-26T00:34:45;15.80;52.60
51815;DHT22;37874;53.158;6.766;2023-02-26T00:37:47;15.80;52.80
51815;DHT22;37874;53.158;6.766;2023-02-26T00:42:53;15.70;52.60
51815;DHT22;37874;53.158;6.766;2023-02-26T00:45:19;15.70;52.70
51815;DHT22;37874;53.158;6.766;2023-02-26T00:50:25;15.70;52.70
51815;DHT22;37874;53.158;6.766;2023-02-26T00:53:20;15.70;52.50
51815;DHT22;37874;53.158;6.766;2023-02-26T00:55:46;15.70;52.50
51815;DHT22;37874;53.158;6.766;2023-02-26T00:58:12;15.70;52.40
51815;DHT22;37874;53.158;6.766;2023-02-26T01:00:37;15.70;52.70
51815;DHT22;37874;53.158;6.766;2023-02-26T01:03:03;15.70;52.70
51815;DHT22;37874;53.158;6.766;2023-02-26T01:05:29;15.70;52.30
51815;DHT22;37874;53.158;6.766;2023-02-26T01:10:34;15.70;52.30
51815;DHT22;37874;53.158;6.766;2023-02-26T01:13:00;15.70;52.40
51815;DHT22;37874;53.158;6.766;2023-02-26T01:15:26;15.60;52.20
51815;DHT22;37874;53.158;6.766;2023-02-26T01:18:12;15.60;52.30
51815;DHT22;37874;53.158;6.766;2023-02-26T01:21:01;15.60;52.30
51815;DHT22;37874;53.158;6.766;2023-02-26T01:23:34;15.60;52.40
51815;DHT22;37874;53.158;6.766;2023-02-26T01:26:16;15.60;52.30
51815;DHT22;37874;53.158;6.766;2023-02-26T01:28:44;15.50;52.30
51815;DHT22;37874;53.158;6.766;2023-02-26T01:31:40;15.50;52.40
51815;DHT22;37874;53.158;6.766;2023-02-26T01:34:36;15.50;52.40
51815;DHT22;37874;53.158;6.766;2023-02-26T01:37:20;15.50;52.30
51815;DHT22;37874;53.158;6.766;2023-02-26T01:42:26;15.50;52.30
51815;DHT22;37874;53.158;6.766;2023-02-26T01:45:00;15.50;52.30
51815;DHT22;37874;53.158;6.766;2023-02-26T01:47:50;15.50;52.40
51815;DHT22;37874;53.158;6.766;2023-02-26T01:50:20;15.50;52.60
51815;DHT22;37874;53.158;6.766;2023-02-26T01:55:16;15.40;52.50
51815;DHT22;37874;53.158;6.766;2023-02-26T01:57:43;15.40;52.40
51815;DHT22;37874;53.158;6.766;2023-02-26T02:00:09;15.40;52.60
51815;DHT22;37874;53.158;6.766;2023-02-26T02:02:35;15.40;52.30
51815;DHT22;37874;53.158;6.766;2023-02-26T02:05:04;15.40;52.50
51815;DHT22;37874;53.158;6.766;2023-02-26T02:07:31;15.40;52.50
51815;DHT22;37874;53.158;6.766;2023-02-26T02:09:57;15.40;52.60
51815;DHT22;37874;53.158;6.766;2023-02-26T02:15:20;15.40;52.60
51815;DHT22;37874;53.158;6.766;2023-02-26T02:20:26;15.40;52.40
51815;DHT22;37874;53.158;6.766;2023-02-26T02:25:49;15.40;52.50
51815;DHT22;37874;53.158;6.766;2023-02-26T02:33:48;15.30;52.40
51815;DHT22;37874;53.158;6.766;2023-02-26T02:39:22;15.30;52.60
51815;DHT22;37874;53.158;6.766;2023-02-26T02:41:54;15.30;52.50
51815;DHT22;37874;53.158;6.766;2023-02-26T02:44:23;15.30;52.60
51815;DHT22;37874;53.158;6.766;2023-02-26T02:46:51;15.30;52.60
51815;DHT22;37874;53.158;6.766;2023-02-26T02:49:41;15.30;52.60
51815;DHT22;37874;53.158;6.766;2023-02-26T02:52:41;15.30;52.60
51815;DHT22;37874;53.158;6.766;2023-02-26T02:55:14;15.30;52.80
51815;DHT22;37874;53.158;6.766;2023-02-26T02:57:49;15.30;52.50
51815;DHT22;37874;53.158;6.766;2023-02-26T03:00:19;15.30;52.60
51815;DHT22;37874;53.158;6.766;2023-02-26T03:05:29;15.20;52.50
51815;DHT22;37874;53.158;6.766;2023-02-26T03:08:02;15.20;52.50
51815;DHT22;37874;53.158;6.766;2023-02-26T03:10:29;15.20;52.40
51815;DHT22;37874;53.158;6.766;2023-02-26T03:12:55;15.20;52.50
51815;DHT22;37874;53.158;6.766;2023-02-26T03:15:41;15.20;52.40
51815;DHT22;37874;53.158;6.766;2023-02-26T03:18:22;15.20;52.50
51815;DHT22;37874;53.158;6.766;2023-02-26T03:21:26;15.20;52.50
51815;DHT22;37874;53.158;6.766;2023-02-26T03:24:14;15.10;52.50
51815;DHT22;37874;53.158;6.766;2023-02-26T03:26:57;15.10;52.60
51815;DHT22;37874;53.158;6.766;2023-02-26T03:35:39;15.10;52.60
51815;DHT22;37874;53.158;6.766;2023-02-26T03:38:11;15.10;52.50
51815;DHT22;37874;53.158;6.766;2023-02-26T03:40:48;15.10;52.70
51815;DHT22;37874;53.158;6.766;2023-02-26T03:43:45;15.10;52.60
51815;DHT22;37874;53.158;6.766;2023-02-26T03:46:20;15.10;52.70
51815;DHT22;37874;53.158;6.766;2023-02-26T03:48:49;15.10;52.70
51815;DHT22;37874;53.158;6.766;2023-02-26T03:51:17;15.00;52.70
51815;DHT22;37874;53.158;6.766;2023-02-26T03:53:53;15.00;52.70
51815;DHT22;37874;53.158;6.766;2023-02-26T03:56:40;15.00;52.80
51815;DHT22;37874;53.158;6.766;2023-02-26T03:59:07;15.00;52.70
51815;DHT22;37874;53.158;6.766;2023-02-26T04:04:22;15.00;52.70
51815;DHT22;37874;53.158;6.766;2023-02-26T04:06:49;15.00;52.80
51815;DHT22;37874;53.158;6.766;2023-02-26T04:09:17;15.00;52.70
51815;DHT22;37874;53.158;6.766;2023-02-26T04:11:44;14.90;52.90
51815;DHT22;37874;53.158;6.766;2023-02-26T04:14:10;14.90;52.80
51815;DHT22;37874;53.158;6.766;2023-02-26T04:16:36;14.90;52.90
51815;DHT22;37874;53.158;6.766;2023-02-26T04:19:01;14.90;52.80
51815;DHT22;37874;53.158;6.766;2023-02-26T04:21:27;14.90;52.90
51815;DHT22;37874;53.158;6.766;2023-02-26T04:23:52;14.90;52.90
51815;DHT22;37874;53.158;6.766;2023-02-26T04:26:18;14.90;53.00
51815;DHT22;37874;53.158;6.766;2023-02-26T04:28:43;14.90;53.00
51815;DHT22;37874;53.158;6.766;2023-02-26T04:31:09;14.90;52.90
51815;DHT22;37874;53.158;6.766;2023-02-26T04:33:35;14.90;52.90
51815;DHT22;37874;53.158;6.766;2023-02-26T04:36:00;14.90;52.90
51815;DHT22;37874;53.158;6.766;2023-02-26T04:38:27;14.90;53.00
51815;DHT22;37874;53.158;6.766;2023-02-26T04:40:52;14.80;53.00
51815;DHT22;37874;53.158;6.766;2023-02-26T04:43:18;14.70;52.90
51815;DHT22;37874;53.158;6.766;2023-02-26T04:45:46;14.80;53.00
51815;DHT22;37874;53.158;6.766;2023-02-26T04:48:13;14.80;53.00
51815;DHT22;37874;53.158;6.766;2023-02-26T04:50:38;14.80;53.00
51815;DHT22;37874;53.158;6.766;2023-02-26T04:53:04;14.80;52.90
51815;DHT22;37874;53.158;6.766;2023-02-26T04:55:30;14.80;53.60
51815;DHT22;37874;53.158;6.766;2023-02-26T04:57:56;14.80;53.00
51815;DHT22;37874;53.158;6.766;2023-02-26T05:00:21;14.80;53.10
51815;DHT22;37874;53.158;6.766;2023-02-26T05:02:47;14.80;53.00
51815;DHT22;37874;53.158;6.766;2023-02-26T05:05:12;14.80;53.10
51815;DHT22;37874;53.158;6.766;2023-02-26T05:07:38;14.80;53.10
51815;DHT22;37874;53.158;6.766;2023-02-26T05:10:07;14.70;53.10
51815;DHT22;37874;53.158;6.766;2023-02-26T05:12:33;14.80;53.20
51815;DHT22;37874;53.158;6.766;2023-02-26T05:14:58;14.70;53.20
51815;DHT22;37874;53.158;6.766;2023-02-26T05:17:24;14.70;53.10
51815;DHT22;37874;53.158;6.766;2023-02-26T05:19:49;14.70;53.10
51815;DHT22;37874;53.158;6.766;2023-02-26T05:22:15;14.70;53.10
51815;DHT22;37874;53.158;6.766;2023-02-26T05:24:41;14.70;53.10
51815;DHT22;37874;53.158;6.766;2023-02-26T05:27:08;14.70;53.10
51815;DHT22;37874;53.158;6.766;2023-02-26T05:29:34;14.70;53.20
51815;DHT22;37874;53.158;6.766;2023-02-26T05:32:01;14.60;53.10
51815;DHT22;37874;53.158;6.766;2023-02-26T05:34:27;14.70;53.20
51815;DHT22;37874;53.158;6.766;2023-02-26T05:36:52;14.70;53.10
51815;DHT22;37874;53.158;6.766;2023-02-26T05:39:18;14.70;53.10
51815;DHT22;37874;53.158;6.766;2023-02-26T05:41:43;14.70;53.10
51815;DHT22;37874;53.158;6.766;2023-02-26T05:44:11;14.70;53.00
51815;DHT22;37874;53.158;6.766;2023-02-26T05:46:36;14.70;53.10
51815;DHT22;37874;53.158;6.766;2023-02-26T05:49:02;14.70;53.10
51815;DHT22;37874;53.158;6.766;2023-02-26T05:51:27;14.60;53.10
51815;DHT22;37874;53.158;6.766;2023-02-26T05:53:53;14.60;53.10
51815;DHT22;37874;53.158;6.766;2023-02-26T05:56:19;14.60;53.00
51815;DHT22;37874;53.158;6.766;2023-02-26T05:58:45;14.60;53.00
51815;DHT22;37874;53.158;6.766;2023-02-26T06:01:10;14.70;53.20
51815;DHT22;37874;53.158;6.766;2023-02-26T06:03:36;14.60;53.20
51815;DHT22;37874;53.158;6.766;2023-02-26T06:06:04;14.60;53.20
51815;DHT22;37874;53.158;6.766;2023-02-26T06:08:30;14.60;53.20
51815;DHT22;37874;53.158;6.766;2023-02-26T06:10:55;14.60;53.00
51815;DHT22;37874;53.158;6.766;2023-02-26T06:13:21;14.60;53.10
51815;DHT22;37874;53.158;6.766;2023-02-26T06:15:49;14.60;53.10
51815;DHT22;37874;53.158;6.766;2023-02-26T06:18:16;14.60;53.20
51815;DHT22;37874;53.158;6.766;2023-02-26T06:20:42;14.60;53.10
51815;DHT22;37874;53.158;6.766;2023-02-26T06:23:07;14.50;53.10
51815;DHT22;37874;53.158;6.766;2023-02-26T06:25:33;14.60;53.10
51815;DHT22;37874;53.158;6.766;2023-02-26T06:27:59;14.50;53.20
51815;DHT22;37874;53.158;6.766;2023-02-26T06:30:24;14.50;53.10
51815;DHT22;37874;53.158;6.766;2023-02-26T06:32:50;14.60;53.20
51815;DHT22;37874;53.158;6.766;2023-02-26T06:35:15;14.50;53.10
51815;DHT22;37874;53.158;6.766;2023-02-26T06:37:41;14.50;53.00
51815;DHT22;37874;53.158;6.766;2023-02-26T06:40:07;14.60;53.10
51815;DHT22;37874;53.158;6.766;2023-02-26T06:42:35;14.50;53.00
51815;DHT22;37874;53.158;6.766;2023-02-26T06:45:01;14.50;53.00
51815;DHT22;37874;53.158;6.766;2023-02-26T06:47:27;14.50;53.00
51815;DHT22;37874;53.158;6.766;2023-02-26T06:49:52;14.50;53.10
51815;DHT22;37874;53.158;6.766;2023-02-26T06:52:18;14.50;53.10
51815;DHT22;37874;53.158;6.766;2023-02-26T06:54:44;14.50;53.10
51815;DHT22;37874;53.158;6.766;2023-02-26T06:57:10;14.50;53.00
51815;DHT22;37874;53.158;6.766;2023-02-26T06:59:35;14.60;53.20
51815;DHT22;37874;53.158;6.766;2023-02-26T07:02:01;14.50;53.10
51815;DHT22;37874;53.158;6.766;2023-02-26T07:04:27;14.50;53.20
51815;DHT22;37874;53.158;6.766;2023-02-26T07:06:52;14.50;53.10
51815;DHT22;37874;53.158;6.766;2023-02-26T07:09:18;14.50;53.10
51815;DHT22;37874;53.158;6.766;2023-02-26T07:11:44;14.50;53.20
51815;DHT22;37874;53.158;6.766;2023-02-26T07:14:10;14.50;53.00
51815;DHT22;37874;53.158;6.766;2023-02-26T07:16:35;14.50;53.10
51815;DHT22;37874;53.158;6.766;2023-02-26T07:19:01;14.50;53.60
51815;DHT22;37874;53.158;6.766;2023-02-26T07:21:27;14.50;53.00
51815;DHT22;37874;53.158;6.766;2023-02-26T07:23:52;14.50;53.00
51815;DHT22;37874;53.158;6.766;2023-02-26T07:26:18;14.50;53.00
51815;DHT22;37874;53.158;6.766;2023-02-26T07:28:43;14.50;53.00
51815;DHT22;37874;53.158;6.766;2023-02-26T07:31:09;14.50;53.00
51815;DHT22;37874;53.158;6.766;2023-02-26T07:33:34;14.50;53.00
51815;DHT22;37874;53.158;6.766;2023-02-26T07:36:00;14.50;52.90
51815;DHT22;37874;53.158;6.766;2023-02-26T07:38:26;14.50;53.00
51815;DHT22;37874;53.158;6.766;2023-02-26T07:40:55;14.40;52.90
51815;DHT22;37874;53.158;6.766;2023-02-26T07:43:21;14.50;52.90
51815;DHT22;37874;53.158;6.766;2023-02-26T07:45:49;14.50;52.90
51815;DHT22;37874;53.158;6.766;2023-02-26T07:48:15;15.20;53.10
51815;DHT22;37874;53.158;6.766;2023-02-26T07:50:41;14.50;52.80
51815;DHT22;37874;53.158;6.766;2023-02-26T07:53:06;14.50;52.80
51815;DHT22;37874;53.158;6.766;2023-02-26T07:55:32;14.50;52.70
51815;DHT22;37874;53.158;6.766;2023-02-26T07:57:57;14.50;52.70
51815;DHT22;37874;53.158;6.766;2023-02-26T08:00:23;14.50;52.80
51815;DHT22;37874;53.158;6.766;2023-02-26T08:02:48;14.50;52.90
51815;DHT22;37874;53.158;6.766;2023-02-26T08:05:14;14.50;52.60
51815;DHT22;37874;53.158;6.766;2023-02-26T08:07:40;14.50;52.70
51815;DHT22;37874;53.158;6.766;2023-02-26T08:10:05;14.50;52.70
51815;DHT22;37874;53.158;6.766;2023-02-26T08:12:31;14.50;52.60
51815;DHT22;37874;53.158;6.766;2023-02-26T08:14:57;14.50;52.50
51815;DHT22;37874;53.158;6.766;2023-02-26T08:17:23;14.50;52.50
51815;DHT22;37874;53.158;6.766;2023-02-26T08:19:48;14.60;52.80
51815;DHT22;37874;53.158;6.766;2023-02-26T08:22:14;14.50;52.60
51815;DHT22;37874;53.158;6.766;2023-02-26T08:24:39;14.50;52.50
51815;DHT22;37874;53.158;6.766;2023-02-26T08:27:05;14.60;52.50
51815;DHT22;37874;53.158;6.766;2023-02-26T08:29:31;14.60;52.70
51815;DHT22;37874;53.158;6.766;2023-02-26T08:31:56;14.60;52.80
51815;DHT22;37874;53.158;6.766;2023-02-26T08:34:22;14.60;52.60
51815;DHT22;37874;53.158;6.766;2023-02-26T08:36:48;14.60;52.50
51815;DHT22;37874;53.158;6.766;2023-02-26T08:39:14;14.60;52.50
51815;DHT22;37874;53.158;6.766;2023-02-26T08:41:40;14.60;52.60
51815;DHT22;37874;53.158;6.766;2023-02-26T08:44:05;14.70;52.70
51815;DHT22;37874;53.158;6.766;2023-02-26T08:46:33;14.60;52.60
51815;DHT22;37874;53.158;6.766;2023-02-26T08:48:59;14.60;52.70
51815;DHT22;37874;53.158;6.766;2023-02-26T08:51:24;14.80;52.70
51815;DHT22;37874;53.158;6.766;2023-02-26T08:53:50;14.70;52.90
51815;DHT22;37874;53.158;6.766;2023-02-26T08:56:16;14.70;52.90
51815;DHT22;37874;53.158;6.766;2023-02-26T08:58:42;14.70;52.60
51815;DHT22;37874;53.158;6.766;2023-02-26T09:01:08;14.70;52.70
51815;DHT22;37874;53.158;6.766;2023-02-26T09:03:34;14.70;52.40
51815;DHT22;37874;53.158;6.766;2023-02-26T09:06:00;14.70;52.60
51815;DHT22;37874;53.158;6.766;2023-02-26T09:08:25;14.70;52.70
51815;DHT22;37874;53.158;6.766;2023-02-26T09:10:51;14.70;52.50
51815;DHT22;37874;53.158;6.766;2023-02-26T09:13:16;14.70;52.80
51815;DHT22;37874;53.158;6.766;2023-02-26T09:15:42;14.70;52.80
51815;DHT22;37874;53.158;6.766;2023-02-26T09:18:08;14.70;52.60
51815;DHT22;37874;53.158;6.766;2023-02-26T09:20:43;14.70;52.20
51815;DHT22;37874;53.158;6.766;2023-02-26T09:23:10;14.70;52.50
51815;DHT22;37874;53.158;6.766;2023-02-26T09:25:35;15.40;52.90
51815;DHT22;37874;53.158;6.766;2023-02-26T09:28:01;14.70;52.70
51815;DHT22;37874;53.158;6.766;2023-02-26T09:30:27;14.70;52.60
51815;DHT22;37874;53.158;6.766;2023-02-26T09:32:52;14.70;52.50
51815;DHT22;37874;53.158;6.766;2023-02-26T09:35:18;14.70;52.80
51815;DHT22;37874;53.158;6.766;2023-02-26T09:37:43;14.70;52.70
51815;DHT22;37874;53.158;6.766;2023-02-26T09:40:22;14.80;52.60
51815;DHT22;37874;53.158;6.766;2023-02-26T09:45:30;14.70;52.60
51815;DHT22;37874;53.158;6.766;2023-02-26T09:47:58;14.70;52.50
51815;DHT22;37874;53.158;6.766;2023-02-26T09:50:31;14.70;52.70
51815;DHT22;37874;53.158;6.766;2023-02-26T09:55:36;14.70;52.30
51815;DHT22;37874;53.158;6.766;2023-02-26T09:58:14;14.80;52.60
51815;DHT22;37874;53.158;6.766;2023-02-26T10:03:31;14.70;52.70
51815;DHT22;37874;53.158;6.766;2023-02-26T10:06:20;14.70;52.80
51815;DHT22;37874;53.158;6.766;2023-02-26T10:14:17;14.80;52.70
51815;DHT22;37874;53.158;6.766;2023-02-26T10:16:48;14.80;52.70
51815;DHT22;37874;53.158;6.766;2023-02-26T10:19:21;14.80;52.70
51815;DHT22;37874;53.158;6.766;2023-02-26T10:21:59;14.80;52.60
51815;DHT22;37874;53.158;6.766;2023-02-26T10:24:41;14.80;52.60
51815;DHT22;37874;53.158;6.766;2023-02-26T10:27:14;14.80;52.70
51815;DHT22;37874;53.158;6.766;2023-02-26T10:29:57;14.80;52.50
51815;DHT22;37874;53.158;6.766;2023-02-26T10:32:29;14.80;52.50
51815;DHT22;37874;53.158;6.766;2023-02-26T10:35:13;14.80;52.50
51815;DHT22;37874;53.158;6.766;2023-02-26T10:37:50;14.90;52.60
51815;DHT22;37874;53.158;6.766;2023-02-26T10:40:46;14.90;52.60
51815;DHT22;37874;53.158;6.766;2023-02-26T10:43:21;14.90;52.50
51815;DHT22;37874;53.158;6.766;2023-02-26T10:51:14;14.90;52.30
51815;DHT22;37874;53.158;6.766;2023-02-26T10:53:44;14.90;52.30
51815;DHT22;37874;53.158;6.766;2023-02-26T10:56:16;14.90;52.20
51815;DHT22;37874;53.158;6.766;2023-02-26T10:58:42;15.00;52.20
51815;DHT22;37874;53.158;6.766;2023-02-26T11:01:21;14.90;52.20
51815;DHT22;37874;53.158;6.766;2023-02-26T11:03:50;15.00;52.20
51815;DHT22;37874;53.158;6.766;2023-02-26T11:06:22;15.00;52.00
51815;DHT22;37874;53.158;6.766;2023-02-26T11:08:51;15.90;52.70
51815;DHT22;37874;53.158;6.766;2023-02-26T11:11:40;15.00;52.20
51815;DHT22;37874;53.158;6.766;2023-02-26T11:14:07;15.00;52.30
51815;DHT22;37874;53.158;6.766;2023-02-26T11:16:34;15.00;52.10
51815;DHT22;37874;53.158;6.766;2023-02-26T11:19:00;15.00;52.10
51815;DHT22;37874;53.158;6.766;2023-02-26T11:21:35;15.00;52.10
51815;DHT22;37874;53.158;6.766;2023-02-26T11:24:09;15.20;52.20
51815;DHT22;37874;53.158;6.766;2023-02-26T11:26:37;14.60;51.30
51815;DHT22;37874;53.158;6.766;2023-02-26T11:29:04;15.60;51.20
51815;DHT22;37874;53.158;6.766;2023-02-26T11:31:31;15.70;50.70
51815;DHT22;37874;53.158;6.766;2023-02-26T11:34:04;15.90;50.20
51815;DHT22;37874;53.158;6.766;2023-02-26T11:36:33;16.10;49.70
51815;DHT22;37874;53.158;6.766;2023-02-26T11:39:06;16.90;50.00
51815;DHT22;37874;53.158;6.766;2023-02-26T11:41:37;16.40;49.30
51815;DHT22;37874;53.158;6.766;2023-02-26T11:44:20;16.60;49.00
51815;DHT22;37874;53.158;6.766;2023-02-26T11:46:51;16.70;48.60
51815;DHT22;37874;53.158;6.766;2023-02-26T11:49:20;16.80;48.40
51815;DHT22;37874;53.158;6.766;2023-02-26T11:51:47;17.00;48.20
51815;DHT22;37874;53.158;6.766;2023-02-26T11:54:24;17.10;47.90
51815;DHT22;37874;53.158;6.766;2023-02-26T11:56:51;17.20;48.20
51815;DHT22;37874;53.158;6.766;2023-02-26T11:59:24;17.30;48.10
51815;DHT22;37874;53.158;6.766;2023-02-26T12:01:51;17.20;47.60
51815;DHT22;37874;53.158;6.766;2023-02-26T12:04:22;17.00;48.00
51815;DHT22;37874;53.158;6.766;2023-02-26T12:06:52;17.10;48.40
51815;DHT22;37874;53.158;6.766;2023-02-26T12:09:18;16.80;48.40
51815;DHT22;37874;53.158;6.766;2023-02-26T12:12:07;16.70;48.60
51815;DHT22;37874;53.158;6.766;2023-02-26T12:14:49;16.50;48.80
51815;DHT22;37874;53.158;6.766;2023-02-26T12:20:57;16.60;49.00
51815;DHT22;37874;53.158;6.766;2023-02-26T12:26:34;16.70;48.90
51815;DHT22;37874;53.158;6.766;2023-02-26T12:37:41;16.30;49.50
51815;DHT22;37874;53.158;6.766;2023-02-26T12:48:58;16.20;49.80
51815;DHT22;37874;53.158;6.766;2023-02-26T12:52:01;16.20;49.80
51815;DHT22;37874;53.158;6.766;2023-02-26T12:57:35;16.10;50.00
51815;DHT22;37874;53.158;6.766;2023-02-26T13:00:21;16.10;50.20
51815;DHT22;37874;53.158;6.766;2023-02-26T13:11:14;16.10;50.10
51815;DHT22;37874;53.158;6.766;2023-02-26T13:14:11;16.20;50.10
51815;DHT22;37874;53.158;6.766;2023-02-26T13:16:57;16.20;50.20
51815;DHT22;37874;53.158;6.766;2023-02-26T13:19:38;16.20;50.20
51815;DHT22;37874;53.158;6.766;2023-02-26T13:22:18;15.70;49.80
51815;DHT22;37874;53.158;6.766;2023-02-26T13:24:56;16.20;50.20
51815;DHT22;37874;53.158;6.766;2023-02-26T13:27:26;16.20;50.10
51815;DHT22;37874;53.158;6.766;2023-02-26T13:30:09;16.20;50.20
51815;DHT22;37874;53.158;6.766;2023-02-26T13:32:43;16.20;50.30
51815;DHT22;37874;53.158;6.766;2023-02-26T13:35:20;16.30;50.30
51815;DHT22;37874;53.158;6.766;2023-02-26T13:37:49;16.20;50.20
51815;DHT22;37874;53.158;6.766;2023-02-26T13:40:50;16.30;50.20
51815;DHT22;37874;53.158;6.766;2023-02-26T13:46:10;16.30;50.10
51815;DHT22;37874;53.158;6.766;2023-02-26T13:48:46;16.30;50.20
51815;DHT22;37874;53.158;6.766;2023-02-26T13:51:30;16.30;50.30
51815;DHT22;37874;53.158;6.766;2023-02-26T13:59:23;16.40;50.40
51815;DHT22;37874;53.158;6.766;2023-02-26T14:01:53;16.40;50.20
51815;DHT22;37874;53.158;6.766;2023-02-26T14:07:14;16.60;50.00
51815;DHT22;37874;53.158;6.766;2023-02-26T14:10:03;16.70;49.70
51815;DHT22;37874;53.158;6.766;2023-02-26T14:12:41;16.70;49.50
51815;DHT22;37874;53.158;6.766;2023-02-26T14:15:28;16.80;49.50
51815;DHT22;37874;53.158;6.766;2023-02-26T14:18:17;16.90;49.30
51815;DHT22;37874;53.158;6.766;2023-02-26T14:20:44;17.00;48.90
51815;DHT22;37874;53.158;6.766;2023-02-26T14:23:19;17.10;48.70
51815;DHT22;37874;53.158;6.766;2023-02-26T14:25:48;17.20;48.60
51815;DHT22;37874;53.158;6.766;2023-02-26T14:31:03;17.10;48.80
51815;DHT22;37874;53.158;6.766;2023-02-26T14:33:31;17.20;48.60
51815;DHT22;37874;53.158;6.766;2023-02-26T14:36:04;17.30;48.30
51815;DHT22;37874;53.158;6.766;2023-02-26T14:38:36;17.30;48.20
51815;DHT22;37874;53.158;6.766;2023-02-26T14:41:16;17.30;48.10
51815;DHT22;37874;53.158;6.766;2023-02-26T14:43:49;17.40;48.20
51815;DHT22;37874;53.158;6.766;2023-02-26T14:46:17;17.40;48.00
51815;DHT22;37874;53.158;6.766;2023-02-26T14:48:43;17.50;48.00
51815;DHT22;37874;53.158;6.766;2023-02-26T14:54:53;17.80;47.40
51815;DHT22;37874;53.158;6.766;2023-02-26T14:57:33;18.00;47.10
51815;DHT22;37874;53.158;6.766;2023-02-26T15:11:55;18.60;45.70
51815;DHT22;37874;53.158;6.766;2023-02-26T15:25:12;18.60;45.70
51815;DHT22;37874;53.158;6.766;2023-02-26T15:27:39;18.70;45.50
51815;DHT22;37874;53.158;6.766;2023-02-26T15:30:06;18.80;45.60
51815;DHT22;37874;53.158;6.766;2023-02-26T15:32:36;18.80;45.40
51815;DHT22;37874;53.158;6.766;2023-02-26T15:35:21;18.80;45.30
51815;DHT22;37874;53.158;6.766;2023-02-26T15:37:52;18.80;45.50
51815;DHT22;37874;53.158;6.766;2023-02-26T15:40:19;18.90;45.50
51815;DHT22;37874;53.158;6.766;2023-02-26T15:42:50;18.90;45.50
51815;DHT22;37874;53.158;6.766;2023-02-26T15:45:46;18.90;45.40
51815;DHT22;37874;53.158;6.766;2023-02-26T15:48:21;18.90;45.40
51815;DHT22;37874;53.158;6.766;2023-02-26T15:50:53;18.90;45.40
51815;DHT22;37874;53.158;6.766;2023-02-26T15:56:04;18.70;45.70
51815;DHT22;37874;53.158;6.766;2023-02-26T15:58:39;18.60;45.90
51815;DHT22;37874;53.158;6.766;2023-02-26T16:01:05;18.50;46.20
51815;DHT22;37874;53.158;6.766;2023-02-26T16:03:34;18.40;46.40
51815;DHT22;37874;53.158;6.766;2023-02-26T16:06:01;18.30;46.40
51815;DHT22;37874;53.158;6.766;2023-02-26T16:08:27;18.10;46.70
51815;DHT22;37874;53.158;6.766;2023-02-26T16:10:55;18.00;46.90
51815;DHT22;37874;53.158;6.766;2023-02-26T16:13:29;17.80;47.70
51815;DHT22;37874;53.158;6.766;2023-02-26T16:16:00;17.70;47.40
51815;DHT22;37874;53.158;6.766;2023-02-26T16:18:26;17.60;47.80
51815;DHT22;37874;53.158;6.766;2023-02-26T16:20:55;17.50;48.10
51815;DHT22;37874;53.158;6.766;2023-02-26T16:23:46;17.40;48.30
51815;DHT22;37874;53.158;6.766;2023-02-26T16:26:37;17.30;48.60
51815;DHT22;37874;53.158;6.766;2023-02-26T16:29:10;17.20;48.90
51815;DHT22;37874;53.158;6.766;2023-02-26T16:31:37;17.20;49.10
51815;DHT22;37874;53.158;6.766;2023-02-26T16:34:28;17.20;49.20
51815;DHT22;37874;53.158;6.766;2023-02-26T16:36:55;17.20;49.30
51815;DHT22;37874;53.158;6.766;2023-02-26T16:39:28;17.10;49.30
51815;DHT22;37874;53.158;6.766;2023-02-26T16:42:07;17.00;49.40
51815;DHT22;37874;53.158;6.766;2023-02-26T16:44:39;17.00;49.50
51815;DHT22;37874;53.158;6.766;2023-02-26T16:47:08;16.90;49.60
51815;DHT22;37874;53.158;6.766;2023-02-26T16:49:35;16.80;49.60
51815;DHT22;37874;53.158;6.766;2023-02-26T16:52:02;16.80;49.90
51815;DHT22;37874;53.158;6.766;2023-02-26T16:54:38;16.70;49.80
51815;DHT22;37874;53.158;6.766;2023-02-26T16:57:21;16.60;50.00
51815;DHT22;37874;53.158;6.766;2023-02-26T16:59:53;16.60;50.10
51815;DHT22;37874;53.158;6.766;2023-02-26T17:02:32;16.60;50.20
51815;DHT22;37874;53.158;6.766;2023-02-26T17:05:14;16.50;50.20
51815;DHT22;37874;53.158;6.766;2023-02-26T17:07:51;16.50;50.30
51815;DHT22;37874;53.158;6.766;2023-02-26T17:10:29;16.40;50.50
51815;DHT22;37874;53.158;6.766;2023-02-26T17:13:12;16.30;50.50
51815;DHT22;37874;53.158;6.766;2023-02-26T17:15:39;16.30;50.60
51815;DHT22;37874;53.158;6.766;2023-02-26T17:18:05;16.30;50.80
51815;DHT22;37874;53.158;6.766;2023-02-26T17:20:31;16.20;50.80
51815;DHT22;37874;53.158;6.766;2023-02-26T17:22:58;16.20;50.90
51815;DHT22;37874;53.158;6.766;2023-02-26T17:25:25;16.10;51.10
51815;DHT22;37874;53.158;6.766;2023-02-26T17:27:53;16.10;51.20
51815;DHT22;37874;53.158;6.766;2023-02-26T17:30:21;16.10;51.20
51815;DHT22;37874;53.158;6.766;2023-02-26T17:32:49;16.00;51.20
51815;DHT22;37874;53.158;6.766;2023-02-26T17:35:16;16.00;51.40
51815;DHT22;37874;53.158;6.766;2023-02-26T17:37:43;15.90;51.30
51815;DHT22;37874;53.158;6.766;2023-02-26T17:40:26;15.90;51.60
51815;DHT22;37874;53.158;6.766;2023-02-26T17:42:52;15.90;51.60
51815;DHT22;37874;53.158;6.766;2023-02-26T17:45:18;15.90;51.70
51815;DHT22;37874;53.158;6.766;2023-02-26T17:47:45;15.80;51.80
51815;DHT22;37874;53.158;6.766;2023-02-26T17:50:47;15.80;51.80
51815;DHT22;37874;53.158;6.766;2023-02-26T17:53:18;15.80;51.90
51815;DHT22;37874;53.158;6.766;2023-02-26T17:55:46;15.80;52.10
51815;DHT22;37874;53.158;6.766;2023-02-26T17:58:17;15.70;52.00
51815;DHT22;37874;53.158;6.766;2023-02-26T18:00:44;15.70;52.00
51815;DHT22;37874;53.158;6.766;2023-02-26T18:03:14;15.70;52.00
51815;DHT22;37874;53.158;6.766;2023-02-26T18:05:39;15.70;52.10
51815;DHT22;37874;53.158;6.766;2023-02-26T18:08:10;15.70;52.20
51815;DHT22;37874;53.158;6.766;2023-02-26T18:10:40;15.70;52.20